sensor_id;sensor_type;location;lat;lon;timestamp;temperature;humidity
36212;DHT22;22247;48.586;13.492;2024-03-17T00:00:54;7.60;99.90
36212;DHT22;22247;48.586;13.492;2024-03-17T00:03:19;7.50;99.90
36212;DHT22;22247;48.586;13.492;2024-03-17T00:05:43;7.70;99.90
36212;DHT22;22247;48.586;13.492;2024-03-17T00:08:10;7.50;99.90
36212;DHT22;22247;48.586;13.492;2024-03-17T00:10:37;7.30;99.90
36212;DHT22;22247;48.586;13.492;2024-03-17T00:13:06;7.50;99.90
36212;DHT22;22247;48.586;13.492;2024-03-17T00:15:33;7.30;99.90
36212;DHT22;22247;48.586;13.492;2024-03-17T00:18:00;7.20;99.90
36212;DHT22;22247;48.586;13.492;2024-03-17T00:20:30;7.20;99.90
36212;DHT22;22247;48.586;13.492;2024-03-17T00:22:56;7.20;99.90
36212;DHT22;22247;48.586;13.492;2024-03-17T00:25:25;7.20;99.90
36212;DHT22;22247;48.586;13.492;2024-03-17T00:27:52;6.80;99.90
36212;DHT22;22247;48.586;13.492;2024-03-17T00:30:22;7.10;99.90
36212;DHT22;22247;48.586;13.492;2024-03-17T00:32:46;7.20;99.90
36212;DHT22;22247;48.586;13.492;2024-03-17T00:35:11;7.20;99.90
36212;DHT22;22247;48.586;13.492;2024-03-17T00:37:38;7.20;99.90
36212;DHT22;22247;48.586;13.492;2024-03-17T00:40:08;7.10;99.90
36212;DHT22;22247;48.586;13.492;2024-03-17T00:42:36;7.20;99.90
36212;DHT22;22247;48.586;13.492;2024-03-17T00:45:00;6.80;99.90
36212;DHT22;22247;48.586;13.492;2024-03-17T00:47:25;7.20;99.90
36212;DHT22;22247;48.586;13.492;2024-03-17T00:49:50;7.30;99.90
36212;DHT22;22247;48.586;13.492;2024-03-17T00:52:17;7.20;99.90
36212;DHT22;22247;48.586;13.492;2024-03-17T00:54:42;7.80;99.90
36212;DHT22;22247;48.586;13.492;2024-03-17T00:57:07;7.10;99.90
36212;DHT22;22247;48.586;13.492;2024-03-17T00:59:31;7.10;99.90
36212;DHT22;22247;48.586;13.492;2024-03-17T01:01:56;7.00;99.90
36212;DHT22;22247;48.586;13.492;2024-03-17T01:04:23;7.10;99.90
36212;DHT22;22247;48.586;13.492;2024-03-17T01:06:52;7.20;99.90
36212;DHT22;22247;48.586;13.492;2024-03-17T01:09:16;7.30;99.90
36212;DHT22;22247;48.586;13.492;2024-03-17T01:11:41;7.00;99.90
36212;DHT22;22247;48.586;13.492;2024-03-17T01:14:05;7.50;99.90
36212;DHT22;22247;48.586;13.492;2024-03-17T01:16:32;6.40;99.90
36212;DHT22;22247;48.586;13.492;2024-03-17T01:18:58;6.80;99.90
36212;DHT22;22247;48.586;13.492;2024-03-17T01:21:23;7.50;99.90
36212;DHT22;22247;48.586;13.492;2024-03-17T01:23:48;7.30;99.90
36212;DHT22;22247;48.586;13.492;2024-03-17T01:26:13;6.50;99.90
36212;DHT22;22247;48.586;13.492;2024-03-17T01:28:38;6.80;99.90
36212;DHT22;22247;48.586;13.492;2024-03-17T01:31:06;6.60;99.90
36212;DHT22;22247;48.586;13.492;2024-03-17T01:33:31;6.40;99.90
36212;DHT22;22247;48.586;13.492;2024-03-17T01:35:55;6.60;99.90
36212;DHT22;22247;48.586;13.492;2024-03-17T01:38:24;6.40;99.90
36212;DHT22;22247;48.586;13.492;2024-03-17T01:40:49;6.40;99.90
36212;DHT22;22247;48.586;13.492;2024-03-17T01:43:14;6.20;99.90
36212;DHT22;22247;48.586;13.492;2024-03-17T01:45:41;6.40;99.90
36212;DHT22;22247;48.586;13.492;2024-03-17T01:48:12;6.10;99.90
36212;DHT22;22247;48.586;13.492;2024-03-17T01:50:42;5.70;99.90
36212;DHT22;22247;48.586;13.492;2024-03-17T01:53:09;6.90;99.90
36212;DHT22;22247;48.586;13.492;2024-03-17T01:55:38;6.40;99.90
36212;DHT22;22247;48.586;13.492;2024-03-17T01:58:06;6.30;99.90
36212;DHT22;22247;48.586;13.492;2024-03-17T02:00:40;6.00;99.90
36212;DHT22;22247;48.586;13.492;2024-03-17T02:03:05;6.10;99.90
36212;DHT22;22247;48.586;13.492;2024-03-17T02:05:30;6.00;99.90
36212;DHT22;22247;48.586;13.492;2024-03-17T02:07:57;5.90;99.90
36212;DHT22;22247;48.586;13.492;2024-03-17T02:10:23;6.30;99.90
36212;DHT22;22247;48.586;13.492;2024-03-17T02:12:51;5.90;99.90
36212;DHT22;22247;48.586;13.492;2024-03-17T02:15:16;5.90;99.90
36212;DHT22;22247;48.586;13.492;2024-03-17T02:17:40;5.90;99.90
36212;DHT22;22247;48.586;13.492;2024-03-17T02:20:07;6.40;99.90
36212;DHT22;22247;48.586;13.492;2024-03-17T02:22:32;5.70;99.90
36212;DHT22;22247;48.586;13.492;2024-03-17T02:24:59;5.50;99.90
36212;DHT22;22247;48.586;13.492;2024-03-17T02:27:23;6.90;99.90
36212;DHT22;22247;48.586;13.492;2024-03-17T02:29:48;5.30;99.90
36212;DHT22;22247;48.586;13.492;2024-03-17T02:32:13;5.10;99.90
36212;DHT22;22247;48.586;13.492;2024-03-17T02:34:38;5.30;99.90
36212;DHT22;22247;48.586;13.492;2024-03-17T02:37:04;5.70;99.90
36212;DHT22;22247;48.586;13.492;2024-03-17T02:39:31;5.40;99.90
36212;DHT22;22247;48.586;13.492;2024-03-17T02:44:31;5.30;99.90
36212;DHT22;22247;48.586;13.492;2024-03-17T02:46:55;5.50;99.90
36212;DHT22;22247;48.586;13.492;2024-03-17T02:49:23;5.20;99.90
36212;DHT22;22247;48.586;13.492;2024-03-17T02:51:48;5.20;99.90
36212;DHT22;22247;48.586;13.492;2024-03-17T02:54:13;5.10;99.90
36212;DHT22;22247;48.586;13.492;2024-03-17T02:56:37;6.00;99.90
36212;DHT22;22247;48.586;13.492;2024-03-17T02:59:05;5.10;99.90
36212;DHT22;22247;48.586;13.492;2024-03-17T03:01:30;5.00;99.90
36212;DHT22;22247;48.586;13.492;2024-03-17T03:03:55;5.40;99.90
36212;DHT22;22247;48.586;13.492;2024-03-17T03:06:22;4.80;99.90
36212;DHT22;22247;48.586;13.492;2024-03-17T03:08:49;4.60;99.90
36212;DHT22;22247;48.586;13.492;2024-03-17T03:11:17;4.90;99.90
36212;DHT22;22247;48.586;13.492;2024-03-17T03:13:43;4.40;99.90
36212;DHT22;22247;48.586;13.492;2024-03-17T03:16:11;5.20;99.90
36212;DHT22;22247;48.586;13.492;2024-03-17T03:18:39;4.80;99.90
36212;DHT22;22247;48.586;13.492;2024-03-17T03:21:06;4.80;99.90
36212;DHT22;22247;48.586;13.492;2024-03-17T03:23:36;4.70;99.90
36212;DHT22;22247;48.586;13.492;2024-03-17T03:26:04;4.70;99.90
36212;DHT22;22247;48.586;13.492;2024-03-17T03:28:32;5.90;99.90
36212;DHT22;22247;48.586;13.492;2024-03-17T03:30:57;4.60;99.90
36212;DHT22;22247;48.586;13.492;2024-03-17T03:33:22;4.60;99.90
36212;DHT22;22247;48.586;13.492;2024-03-17T03:35:48;4.50;99.90
36212;DHT22;22247;48.586;13.492;2024-03-17T03:38:12;3.50;99.90
36212;DHT22;22247;48.586;13.492;2024-03-17T03:40:41;4.20;99.90
36212;DHT22;22247;48.586;13.492;2024-03-17T03:43:06;4.90;99.90
36212;DHT22;22247;48.586;13.492;2024-03-17T03:45:34;4.30;99.90
36212;DHT22;22247;48.586;13.492;2024-03-17T03:47:59;4.60;99.90
36212;DHT22;22247;48.586;13.492;2024-03-17T03:50:24;3.90;99.90
36212;DHT22;22247;48.586;13.492;2024-03-17T03:52:50;3.40;99.90
36212;DHT22;22247;48.586;13.492;2024-03-17T03:55:16;3.20;99.90
36212;DHT22;22247;48.586;13.492;2024-03-17T03:57:44;5.40;99.90
36212;DHT22;22247;48.586;13.492;2024-03-17T04:00:15;4.60;99.90
36212;DHT22;22247;48.586;13.492;2024-03-17T04:02:40;3.60;99.90
36212;DHT22;22247;48.586;13.492;2024-03-17T04:05:08;3.70;99.90
36212;DHT22;22247;48.586;13.492;2024-03-17T04:07:33;5.80;99.90
36212;DHT22;22247;48.586;13.492;2024-03-17T04:09:58;3.70;99.90
36212;DHT22;22247;48.586;13.492;2024-03-17T04:12:24;3.40;99.90
36212;DHT22;22247;48.586;13.492;2024-03-17T04:14:52;3.60;99.90
36212;DHT22;22247;48.586;13.492;2024-03-17T04:17:18;3.40;99.90
36212;DHT22;22247;48.586;13.492;2024-03-17T04:19:45;3.40;99.90
36212;DHT22;22247;48.586;13.492;2024-03-17T04:22:12;3.70;99.90
36212;DHT22;22247;48.586;13.492;2024-03-17T04:24:37;4.60;99.90
36212;DHT22;22247;48.586;13.492;2024-03-17T04:27:02;3.90;99.90
36212;DHT22;22247;48.586;13.492;2024-03-17T04:29:31;4.20;99.90
36212;DHT22;22247;48.586;13.492;2024-03-17T04:31:55;4.80;99.90
36212;DHT22;22247;48.586;13.492;2024-03-17T04:34:20;3.80;99.90
36212;DHT22;22247;48.586;13.492;2024-03-17T04:36:46;4.30;99.90
36212;DHT22;22247;48.586;13.492;2024-03-17T04:39:11;4.20;99.90
36212;DHT22;22247;48.586;13.492;2024-03-17T04:41:38;4.30;99.90
36212;DHT22;22247;48.586;13.492;2024-03-17T04:44:05;4.70;99.90
36212;DHT22;22247;48.586;13.492;2024-03-17T04:46:30;4.50;99.90
36212;DHT22;22247;48.586;13.492;2024-03-17T04:48:55;5.00;99.90
36212;DHT22;22247;48.586;13.492;2024-03-17T04:51:22;4.90;99.90
36212;DHT22;22247;48.586;13.492;2024-03-17T04:53:47;5.20;99.90
36212;DHT22;22247;48.586;13.492;2024-03-17T04:56:11;5.40;99.90
36212;DHT22;22247;48.586;13.492;2024-03-17T04:58:36;4.60;99.90
36212;DHT22;22247;48.586;13.492;2024-03-17T05:01:10;4.70;99.90
36212;DHT22;22247;48.586;13.492;2024-03-17T05:03:37;5.50;99.90
36212;DHT22;22247;48.586;13.492;2024-03-17T05:06:07;4.80;99.90
36212;DHT22;22247;48.586;13.492;2024-03-17T05:08:32;4.70;99.90
36212;DHT22;22247;48.586;13.492;2024-03-17T05:11:04;4.80;99.90
36212;DHT22;22247;48.586;13.492;2024-03-17T05:13:29;5.30;99.90
36212;DHT22;22247;48.586;13.492;2024-03-17T05:15:54;4.90;99.90
36212;DHT22;22247;48.586;13.492;2024-03-17T05:18:19;5.00;99.90
36212;DHT22;22247;48.586;13.492;2024-03-17T05:20:44;5.90;99.90
36212;DHT22;22247;48.586;13.492;2024-03-17T05:23:11;4.90;99.90
36212;DHT22;22247;48.586;13.492;2024-03-17T05:25:35;4.60;99.90
36212;DHT22;22247;48.586;13.492;2024-03-17T05:28:01;4.70;99.90
36212;DHT22;22247;48.586;13.492;2024-03-17T05:30:28;4.70;99.90
36212;DHT22;22247;48.586;13.492;2024-03-17T05:32:55;5.80;99.90
36212;DHT22;22247;48.586;13.492;2024-03-17T05:35:22;5.00;99.90
36212;DHT22;22247;48.586;13.492;2024-03-17T05:37:51;5.10;99.90
36212;DHT22;22247;48.586;13.492;2024-03-17T05:40:25;5.70;99.90
36212;DHT22;22247;48.586;13.492;2024-03-17T05:42:50;5.20;99.90
36212;DHT22;22247;48.586;13.492;2024-03-17T05:45:18;6.00;99.90
36212;DHT22;22247;48.586;13.492;2024-03-17T05:47:43;5.70;99.90
36212;DHT22;22247;48.586;13.492;2024-03-17T05:50:08;5.40;99.90
36212;DHT22;22247;48.586;13.492;2024-03-17T05:52:33;5.30;99.90
36212;DHT22;22247;48.586;13.492;2024-03-17T05:54:59;6.20;99.90
36212;DHT22;22247;48.586;13.492;2024-03-17T05:57:24;5.30;99.90
36212;DHT22;22247;48.586;13.492;2024-03-17T05:59:48;6.30;99.90
36212;DHT22;22247;48.586;13.492;2024-03-17T06:02:17;7.00;99.90
36212;DHT22;22247;48.586;13.492;2024-03-17T06:04:43;5.70;99.90
36212;DHT22;22247;48.586;13.492;2024-03-17T06:07:08;5.60;99.90
36212;DHT22;22247;48.586;13.492;2024-03-17T06:09:34;5.90;99.90
36212;DHT22;22247;48.586;13.492;2024-03-17T06:12:02;5.90;99.90
36212;DHT22;22247;48.586;13.492;2024-03-17T06:14:27;5.50;99.90
36212;DHT22;22247;48.586;13.492;2024-03-17T06:16:52;5.70;99.90
36212;DHT22;22247;48.586;13.492;2024-03-17T06:19:17;5.50;99.90
36212;DHT22;22247;48.586;13.492;2024-03-17T06:21:41;5.90;99.90
36212;DHT22;22247;48.586;13.492;2024-03-17T06:24:06;5.30;99.90
36212;DHT22;22247;48.586;13.492;2024-03-17T06:26:34;5.60;99.90
36212;DHT22;22247;48.586;13.492;2024-03-17T06:29:01;6.30;99.90
36212;DHT22;22247;48.586;13.492;2024-03-17T06:31:28;6.40;99.90
36212;DHT22;22247;48.586;13.492;2024-03-17T06:33:52;5.70;99.90
36212;DHT22;22247;48.586;13.492;2024-03-17T06:36:19;5.70;99.90
36212;DHT22;22247;48.586;13.492;2024-03-17T06:38:44;5.70;99.90
36212;DHT22;22247;48.586;13.492;2024-03-17T06:41:09;5.90;99.90
36212;DHT22;22247;48.586;13.492;2024-03-17T06:43:34;5.90;99.90
36212;DHT22;22247;48.586;13.492;2024-03-17T06:46:04;5.90;99.90
36212;DHT22;22247;48.586;13.492;2024-03-17T06:48:29;5.80;99.90
36212;DHT22;22247;48.586;13.492;2024-03-17T06:50:54;5.80;99.90
36212;DHT22;22247;48.586;13.492;2024-03-17T06:53:22;5.00;99.90
36212;DHT22;22247;48.586;13.492;2024-03-17T06:55:57;6.80;99.90
36212;DHT22;22247;48.586;13.492;2024-03-17T06:58:26;5.90;99.90
36212;DHT22;22247;48.586;13.492;2024-03-17T07:01:01;5.60;99.90
36212;DHT22;22247;48.586;13.492;2024-03-17T07:03:27;6.00;99.90
36212;DHT22;22247;48.586;13.492;2024-03-17T07:06:00;6.00;99.90
36212;DHT22;22247;48.586;13.492;2024-03-17T07:08:28;5.90;99.90
36212;DHT22;22247;48.586;13.492;2024-03-17T07:10:56;5.80;99.90
36212;DHT22;22247;48.586;13.492;2024-03-17T07:13:21;5.90;99.90
36212;DHT22;22247;48.586;13.492;2024-03-17T07:15:53;6.00;99.90
36212;DHT22;22247;48.586;13.492;2024-03-17T07:18:23;5.40;99.90
36212;DHT22;22247;48.586;13.492;2024-03-17T07:20:51;6.20;99.90
36212;DHT22;22247;48.586;13.492;2024-03-17T07:23:18;6.30;99.90
36212;DHT22;22247;48.586;13.492;2024-03-17T07:25:43;6.70;99.90
36212;DHT22;22247;48.586;13.492;2024-03-17T07:28:17;6.40;99.90
36212;DHT22;22247;48.586;13.492;2024-03-17T07:30:47;6.30;99.90
36212;DHT22;22247;48.586;13.492;2024-03-17T07:33:12;6.60;99.90
36212;DHT22;22247;48.586;13.492;2024-03-17T07:35:48;7.00;99.90
36212;DHT22;22247;48.586;13.492;2024-03-17T07:38:16;7.60;99.90
36212;DHT22;22247;48.586;13.492;2024-03-17T07:40:41;6.60;99.90
36212;DHT22;22247;48.586;13.492;2024-03-17T07:43:05;6.70;99.90
36212;DHT22;22247;48.586;13.492;2024-03-17T07:45:32;6.80;99.90
36212;DHT22;22247;48.586;13.492;2024-03-17T07:47:57;8.00;99.90
36212;DHT22;22247;48.586;13.492;2024-03-17T07:50:21;7.20;99.90
36212;DHT22;22247;48.586;13.492;2024-03-17T07:52:46;6.90;99.90
36212;DHT22;22247;48.586;13.492;2024-03-17T07:55:11;8.00;99.90
36212;DHT22;22247;48.586;13.492;2024-03-17T07:57:40;7.40;99.90
36212;DHT22;22247;48.586;13.492;2024-03-17T08:00:05;7.60;99.90
36212;DHT22;22247;48.586;13.492;2024-03-17T08:02:44;7.80;99.90
36212;DHT22;22247;48.586;13.492;2024-03-17T08:05:12;7.70;99.90
36212;DHT22;22247;48.586;13.492;2024-03-17T08:07:42;7.80;99.90
36212;DHT22;22247;48.586;13.492;2024-03-17T08:10:06;7.70;99.90
36212;DHT22;22247;48.586;13.492;2024-03-17T08:12:31;7.80;99.90
36212;DHT22;22247;48.586;13.492;2024-03-17T08:15:01;8.00;99.90
36212;DHT22;22247;48.586;13.492;2024-03-17T08:17:25;8.00;99.90
36212;DHT22;22247;48.586;13.492;2024-03-17T08:19:50;8.10;99.90
36212;DHT22;22247;48.586;13.492;2024-03-17T08:22:20;8.20;99.90
36212;DHT22;22247;48.586;13.492;2024-03-17T08:24:45;8.60;99.90
36212;DHT22;22247;48.586;13.492;2024-03-17T08:27:09;8.40;99.90
36212;DHT22;22247;48.586;13.492;2024-03-17T08:29:34;8.60;99.90
36212;DHT22;22247;48.586;13.492;2024-03-17T08:31:59;9.60;99.90
36212;DHT22;22247;48.586;13.492;2024-03-17T08:34:26;8.90;99.90
36212;DHT22;22247;48.586;13.492;2024-03-17T08:36:51;9.00;99.90
36212;DHT22;22247;48.586;13.492;2024-03-17T08:39:16;8.80;99.90
36212;DHT22;22247;48.586;13.492;2024-03-17T08:44:08;9.20;99.90
36212;DHT22;22247;48.586;13.492;2024-03-17T08:46:35;9.50;99.90
36212;DHT22;22247;48.586;13.492;2024-03-17T08:49:00;9.70;99.90
36212;DHT22;22247;48.586;13.492;2024-03-17T08:51:27;9.40;99.90
36212;DHT22;22247;48.586;13.492;2024-03-17T08:53:51;9.20;99.90
36212;DHT22;22247;48.586;13.492;2024-03-17T08:56:23;9.40;99.90
36212;DHT22;22247;48.586;13.492;2024-03-17T08:58:52;9.40;99.90
36212;DHT22;22247;48.586;13.492;2024-03-17T09:01:17;9.40;99.90
36212;DHT22;22247;48.586;13.492;2024-03-17T09:03:41;9.20;99.90
36212;DHT22;22247;48.586;13.492;2024-03-17T09:06:17;9.20;99.90
36212;DHT22;22247;48.586;13.492;2024-03-17T09:08:43;9.70;99.90
36212;DHT22;22247;48.586;13.492;2024-03-17T09:11:20;9.70;99.90
36212;DHT22;22247;48.586;13.492;2024-03-17T09:13:50;9.30;99.90
36212;DHT22;22247;48.586;13.492;2024-03-17T09:16:15;9.40;99.90
36212;DHT22;22247;48.586;13.492;2024-03-17T09:18:42;9.50;99.90
36212;DHT22;22247;48.586;13.492;2024-03-17T09:21:09;9.40;99.90
36212;DHT22;22247;48.586;13.492;2024-03-17T09:23:37;9.40;99.90
36212;DHT22;22247;48.586;13.492;2024-03-17T09:26:08;8.80;99.90
36212;DHT22;22247;48.586;13.492;2024-03-17T09:28:37;9.30;99.90
36212;DHT22;22247;48.586;13.492;2024-03-17T09:31:05;9.40;99.90
36212;DHT22;22247;48.586;13.492;2024-03-17T09:33:33;9.40;99.90
36212;DHT22;22247;48.586;13.492;2024-03-17T09:36:00;9.60;99.90
36212;DHT22;22247;48.586;13.492;2024-03-17T09:38:28;10.00;99.90
36212;DHT22;22247;48.586;13.492;2024-03-17T09:40:56;10.50;99.90
36212;DHT22;22247;48.586;13.492;2024-03-17T09:43:31;10.50;99.90
36212;DHT22;22247;48.586;13.492;2024-03-17T09:45:56;10.40;99.90
36212;DHT22;22247;48.586;13.492;2024-03-17T10:03:02;10.20;99.90
36212;DHT22;22247;48.586;13.492;2024-03-17T10:05:27;10.10;99.90
36212;DHT22;22247;48.586;13.492;2024-03-17T10:07:51;9.90;99.90
36212;DHT22;22247;48.586;13.492;2024-03-17T10:10:20;10.10;99.90
36212;DHT22;22247;48.586;13.492;2024-03-17T19:32:48;6.70;99.90
36212;DHT22;22247;48.586;13.492;2024-03-17T19:35:16;7.00;99.90
36212;DHT22;22247;48.586;13.492;2024-03-17T19:37:42;6.40;99.90
36212;DHT22;22247;48.586;13.492;2024-03-17T19:40:07;6.30;99.90
36212;DHT22;22247;48.586;13.492;2024-03-17T19:42:32;6.40;99.90
36212;DHT22;22247;48.586;13.492;2024-03-17T19:44:57;7.20;99.90
36212;DHT22;22247;48.586;13.492;2024-03-17T19:47:21;6.50;99.90
36212;DHT22;22247;48.586;13.492;2024-03-17T19:49:50;5.90;99.90
36212;DHT22;22247;48.586;13.492;2024-03-17T19:52:18;5.90;99.90
36212;DHT22;22247;48.586;13.492;2024-03-17T19:54:45;6.30;99.90
36212;DHT22;22247;48.586;13.492;2024-03-17T19:57:09;5.90;99.90
36212;DHT22;22247;48.586;13.492;2024-03-17T19:59:35;5.60;99.90
36212;DHT22;22247;48.586;13.492;2024-03-17T20:02:00;6.00;99.90
36212;DHT22;22247;48.586;13.492;2024-03-17T20:04:24;5.90;99.90
36212;DHT22;22247;48.586;13.492;2024-03-17T20:06:53;6.20;99.90
36212;DHT22;22247;48.586;13.492;2024-03-17T20:09:20;6.10;99.90
36212;DHT22;22247;48.586;13.492;2024-03-17T20:11:47;6.30;99.90
36212;DHT22;22247;48.586;13.492;2024-03-17T20:14:11;6.40;99.90
36212;DHT22;22247;48.586;13.492;2024-03-17T20:16:39;6.40;99.90
36212;DHT22;22247;48.586;13.492;2024-03-17T20:19:04;7.40;99.90
36212;DHT22;22247;48.586;13.492;2024-03-17T20:21:29;6.30;99.90
36212;DHT22;22247;48.586;13.492;2024-03-17T20:23:53;6.40;99.90
36212;DHT22;22247;48.586;13.492;2024-03-17T20:26:20;6.40;99.90
36212;DHT22;22247;48.586;13.492;2024-03-17T20:28:47;7.10;99.90
36212;DHT22;22247;48.586;13.492;2024-03-17T20:31:16;6.70;99.90
36212;DHT22;22247;48.586;13.492;2024-03-17T20:33:42;7.20;99.90
36212;DHT22;22247;48.586;13.492;2024-03-17T20:36:14;7.00;99.90
36212;DHT22;22247;48.586;13.492;2024-03-17T20:38:44;6.90;99.90
36212;DHT22;22247;48.586;13.492;2024-03-17T20:41:08;6.60;99.90
36212;DHT22;22247;48.586;13.492;2024-03-17T20:43:39;6.80;99.90
36212;DHT22;22247;48.586;13.492;2024-03-17T20:46:03;7.40;99.90
36212;DHT22;22247;48.586;13.492;2024-03-17T20:48:37;6.50;99.90
36212;DHT22;22247;48.586;13.492;2024-03-17T20:51:02;6.40;99.90
36212;DHT22;22247;48.586;13.492;2024-03-17T20:53:33;6.40;99.90
36212;DHT22;22247;48.586;13.492;2024-03-17T20:56:00;6.30;99.90
36212;DHT22;22247;48.586;13.492;2024-03-17T20:58:26;6.80;99.90
36212;DHT22;22247;48.586;13.492;2024-03-17T21:00:52;6.10;99.90
36212;DHT22;22247;48.586;13.492;2024-03-17T21:03:17;6.30;99.90
36212;DHT22;22247;48.586;13.492;2024-03-17T21:05:42;6.70;99.90
36212;DHT22;22247;48.586;13.492;2024-03-17T21:08:07;6.50;99.90
36212;DHT22;22247;48.586;13.492;2024-03-17T21:10:32;6.20;99.90
36212;DHT22;22247;48.586;13.492;2024-03-17T21:13:02;6.50;99.90
36212;DHT22;22247;48.586;13.492;2024-03-17T21:15:29;6.50;99.90
36212;DHT22;22247;48.586;13.492;2024-03-17T21:17:56;6.30;99.90
36212;DHT22;22247;48.586;13.492;2024-03-17T21:20:22;5.90;99.90
36212;DHT22;22247;48.586;13.492;2024-03-17T21:22:48;6.00;99.90
36212;DHT22;22247;48.586;13.492;2024-03-17T21:25:13;6.10;99.90
36212;DHT22;22247;48.586;13.492;2024-03-17T21:27:38;6.50;99.90
36212;DHT22;22247;48.586;13.492;2024-03-17T21:30:11;6.40;99.90
36212;DHT22;22247;48.586;13.492;2024-03-17T21:32:36;6.70;99.90
36212;DHT22;22247;48.586;13.492;2024-03-17T21:35:03;6.00;99.90
36212;DHT22;22247;48.586;13.492;2024-03-17T21:37:28;7.00;99.90
36212;DHT22;22247;48.586;13.492;2024-03-17T21:39:56;6.00;99.90
36212;DHT22;22247;48.586;13.492;2024-03-17T21:42:21;5.80;99.90
36212;DHT22;22247;48.586;13.492;2024-03-17T21:44:45;6.00;99.90
36212;DHT22;22247;48.586;13.492;2024-03-17T21:47:12;6.20;99.90
36212;DHT22;22247;48.586;13.492;2024-03-17T21:49:39;5.90;99.90
36212;DHT22;22247;48.586;13.492;2024-03-17T21:52:06;6.10;99.90
36212;DHT22;22247;48.586;13.492;2024-03-17T21:54:36;5.90;99.90
36212;DHT22;22247;48.586;13.492;2024-03-17T21:57:00;6.40;99.90
36212;DHT22;22247;48.586;13.492;2024-03-17T21:59:25;5.60;99.90
36212;DHT22;22247;48.586;13.492;2024-03-17T22:01:50;6.70;99.90
36212;DHT22;22247;48.586;13.492;2024-03-17T22:04:15;6.10;99.90
36212;DHT22;22247;48.586;13.492;2024-03-17T22:06:40;5.60;99.90
36212;DHT22;22247;48.586;13.492;2024-03-17T22:09:05;5.50;99.90
36212;DHT22;22247;48.586;13.492;2024-03-17T22:11:30;6.20;99.90
36212;DHT22;22247;48.586;13.492;2024-03-17T22:13:57;5.50;99.90
36212;DHT22;22247;48.586;13.492;2024-03-17T22:16:22;5.40;99.90
36212;DHT22;22247;48.586;13.492;2024-03-17T22:18:47;5.60;99.90
36212;DHT22;22247;48.586;13.492;2024-03-17T22:21:11;5.80;99.90
36212;DHT22;22247;48.586;13.492;2024-03-17T22:23:37;5.80;99.90
36212;DHT22;22247;48.586;13.492;2024-03-17T22:26:04;5.70;99.90
36212;DHT22;22247;48.586;13.492;2024-03-17T22:28:30;5.80;99.90
36212;DHT22;22247;48.586;13.492;2024-03-17T22:31:02;5.50;99.90
36212;DHT22;22247;48.586;13.492;2024-03-17T22:33:33;5.60;99.90
36212;DHT22;22247;48.586;13.492;2024-03-17T22:36:03;5.50;99.90
36212;DHT22;22247;48.586;13.492;2024-03-17T22:38:29;5.80;99.90
36212;DHT22;22247;48.586;13.492;2024-03-17T22:40:58;5.60;99.90
36212;DHT22;22247;48.586;13.492;2024-03-17T22:43:27;6.40;99.90
36212;DHT22;22247;48.586;13.492;2024-03-17T22:45:54;5.80;99.90
36212;DHT22;22247;48.586;13.492;2024-03-17T22:48:23;5.80;99.90
36212;DHT22;22247;48.586;13.492;2024-03-17T22:50:50;6.20;99.90
36212;DHT22;22247;48.586;13.492;2024-03-17T22:53:16;5.60;99.90
36212;DHT22;22247;48.586;13.492;2024-03-17T22:58:16;5.50;99.90
36212;DHT22;22247;48.586;13.492;2024-03-17T23:00:41;5.70;99.90
36212;DHT22;22247;48.586;13.492;2024-03-17T23:03:08;5.30;99.90
36212;DHT22;22247;48.586;13.492;2024-03-17T23:05:39;5.80;99.90
36212;DHT22;22247;48.586;13.492;2024-03-17T23:08:04;6.00;99.90
36212;DHT22;22247;48.586;13.492;2024-03-17T23:10:31;5.10;99.90
36212;DHT22;22247;48.586;13.492;2024-03-17T23:12:56;5.10;99.90
36212;DHT22;22247;48.586;13.492;2024-03-17T23:15:23;5.10;99.90
36212;DHT22;22247;48.586;13.492;2024-03-17T23:17:50;5.20;99.90
36212;DHT22;22247;48.586;13.492;2024-03-17T23:20:17;5.60;99.90
36212;DHT22;22247;48.586;13.492;2024-03-17T23:22:48;6.20;99.90
36212;DHT22;22247;48.586;13.492;2024-03-17T23:25:15;5.70;99.90
36212;DHT22;22247;48.586;13.492;2024-03-17T23:27:45;5.60;99.90
36212;DHT22;22247;48.586;13.492;2024-03-17T23:30:10;5.80;99.90
36212;DHT22;22247;48.586;13.492;2024-03-17T23:32:38;5.40;99.90
36212;DHT22;22247;48.586;13.492;2024-03-17T23:35:03;7.10;99.90
36212;DHT22;22247;48.586;13.492;2024-03-17T23:37:33;5.50;99.90
36212;DHT22;22247;48.586;13.492;2024-03-17T23:40:02;6.70;99.90
36212;DHT22;22247;48.586;13.492;2024-03-17T23:42:30;5.50;99.90
36212;DHT22;22247;48.586;13.492;2024-03-17T23:44:54;5.50;99.90
36212;DHT22;22247;48.586;13.492;2024-03-17T23:47:21;5.70;99.90
36212;DHT22;22247;48.586;13.492;2024-03-17T23:49:48;6.00;99.90
36212;DHT22;22247;48.586;13.492;2024-03-17T23:52:13;5.50;99.90
36212;DHT22;22247;48.586;13.492;2024-03-17T23:54:38;6.30;99.90
36212;DHT22;22247;48.586;13.492;2024-03-17T23:57:03;6.00;99.90
36212;DHT22;22247;48.586;13.492;2024-03-17T23:59:30;5.30;99.90
